Aérodrome :
LOGIN :

S'inscrire | Disclaimer

   EN    FR    IT 

 










Légende :    VFR   VFR Marginal   IFR   IFR Intensif   IFR Très Intensif
Visi : 
Plafond : 
>= 8 km
>= 3000ft
5 à 8 km
1000 à 3000 ft
1500m à 5 km
500 à 1000 ft
800 à 1500m
200 à 500 ft
< 800m
< 200 ft
Symboles :   Orages  Brouillard  Fortes neiges  Fortes précipitations  Vent > 20 kt
SIGMETs :   Divers  Orages  Givrage  Turbulence  Onde Orograph.  Cendres Volcan.







- Altitude de l'aérodrome : 291 ft
- Code IATA : ORY
- Voir les cartes d'approche


LFPO - Paris-Orly

DERNIER METAR :
  • 221500Z 23005KT 190V290 CAVOK 25/11 Q1015 NOSIG

METARs EXPIRÉS :
  • 221430Z 22006KT 180V310 CAVOK 25/09 Q1015 NOSIG
  • 221400Z 22007KT 170V290 CAVOK 25/10 Q1015 NOSIG
  • 221330Z VRB04KT CAVOK 26/11 Q1015 NOSIG
  • 221300Z VRB04KT CAVOK 24/12 Q1015 NOSIG
  • 221230Z VRB05KT CAVOK 24/11 Q1016 NOSIG

TAF TAF LFPO
Valide du 22 à 12h jusqu'au 23 à 18h UTC


221100Z 2212/2318 15006KT CAVOK
BECMG 2215/2218 24006KT
BECMG 2300/2303 32007KT
PROB30
TEMPO 2304/2307 SCT009 SCT045
ATIS : +33 1 49 75 65 80
Pas de NOTAMs connus pour ce terrain.



MET'MAP, la Météo Aéronautique d'un coup d'oeil ! - Copyright ORBIFLY Décembre 2007 - Disclaimer

ORBIFLY MET'MAP TEAM :

Programmation & Développement : Alexandra Zaïnal
Conception & Développement : Baudouin d'Aumeries
Co-Programmation & Développement : Marc-Olivier Méhu
Soutien technique & logistique : Manuel Goepfert

Contact : metmap@orbifly.com




SOURCES & CREDITS :

   NOAA